createdAt,value
2018-07-31T00:00:05.195Z,23.76
2018-07-31T00:01:05.263Z,23.73
2018-07-31T00:02:05.335Z,23.78
2018-07-31T00:03:05.399Z,23.69
2018-07-31T00:04:05.475Z,23.73
2018-07-31T00:05:05.544Z,23.74
2018-07-31T00:06:05.603Z,23.73
2018-07-31T00:07:05.679Z,23.76
2018-07-31T00:08:05.740Z,23.71
2018-07-31T00:09:05.813Z,23.73
2018-07-31T00:10:05.879Z,23.73
2018-07-31T00:11:05.948Z,23.65
2018-07-31T00:12:06.012Z,23.80
2018-07-31T00:13:06.075Z,23.78
2018-07-31T00:14:06.179Z,23.78
2018-07-31T00:15:06.214Z,23.81
2018-07-31T00:16:06.281Z,23.86
2018-07-31T00:17:06.348Z,23.83
2018-07-31T00:18:06.416Z,23.84
2018-07-31T00:19:06.492Z,23.88
2018-07-31T00:20:06.563Z,23.83
2018-07-31T00:21:06.624Z,23.87
2018-07-31T00:22:06.690Z,23.87
2018-07-31T00:23:06.761Z,23.86
2018-07-31T00:24:06.833Z,23.88
2018-07-31T00:25:06.900Z,23.88
2018-07-31T00:26:06.960Z,23.91
2018-07-31T00:27:07.034Z,23.84
2018-07-31T00:28:07.104Z,23.83
2018-07-31T00:29:07.176Z,23.83
2018-07-31T00:30:07.228Z,23.83
2018-07-31T00:31:07.297Z,23.80
2018-07-31T00:32:07.373Z,23.81
2018-07-31T00:33:07.438Z,23.83
2018-07-31T00:34:07.508Z,23.83
2018-07-31T00:35:07.577Z,23.84
2018-07-31T00:36:07.638Z,23.86
2018-07-31T00:37:07.705Z,23.84
2018-07-31T00:38:07.774Z,23.84
2018-07-31T00:39:07.850Z,23.91
2018-07-31T00:40:07.914Z,23.87
2018-07-31T00:41:07.977Z,23.87
2018-07-31T00:42:08.045Z,23.87
2018-07-31T00:43:08.118Z,23.83
2018-07-31T00:44:08.182Z,23.80
2018-07-31T00:45:08.409Z,23.83
2018-07-31T00:46:08.313Z,23.81
2018-07-31T00:47:08.381Z,23.76
2018-07-31T00:48:08.449Z,23.81
2018-07-31T00:49:08.525Z,23.73
2018-07-31T00:50:08.594Z,23.73
2018-07-31T00:51:08.661Z,23.65
2018-07-31T00:52:08.721Z,23.68
2018-07-31T00:53:08.789Z,23.54
2018-07-31T00:54:08.857Z,23.58
2018-07-31T00:55:08.933Z,23.59
2018-07-31T00:56:08.999Z,23.48
2018-07-31T00:57:09.062Z,23.47
2018-07-31T00:58:09.129Z,23.55
2018-07-31T00:59:09.194Z,23.43
2018-07-31T01:00:09.262Z,23.43
2018-07-31T01:01:09.373Z,23.36
2018-07-31T01:02:09.398Z,23.32
2018-07-31T01:03:09.466Z,23.34
2018-07-31T01:04:09.534Z,23.25
2018-07-31T01:05:09.610Z,23.18
2018-07-31T01:06:09.674Z,23.17
2018-07-31T01:07:09.743Z,23.15
2018-07-31T01:08:09.802Z,23.15
2018-07-31T01:09:09.870Z,23.10
2018-07-31T01:10:09.938Z,23.15
2018-07-31T01:11:10.015Z,23.13
2018-07-31T01:12:10.082Z,23.05
2018-07-31T01:13:10.139Z,23.10
2018-07-31T01:14:10.206Z,23.10
2018-07-31T01:15:10.274Z,23.05
2018-07-31T01:16:10.375Z,23.05
2018-07-31T01:17:10.410Z,22.94
2018-07-31T01:18:10.478Z,22.83
2018-07-31T01:19:10.546Z,22.90
2018-07-31T01:20:10.615Z,22.87
2018-07-31T01:21:10.699Z,22.81
2018-07-31T01:22:10.756Z,22.83
2018-07-31T01:23:10.816Z,22.75
2018-07-31T01:24:10.888Z,22.76
2018-07-31T01:25:10.951Z,22.73
2018-07-31T01:26:11.044Z,22.68
2018-07-31T01:27:11.096Z,22.68
2018-07-31T01:28:11.155Z,22.66
2018-07-31T01:29:11.219Z,22.66
2018-07-31T01:30:11.295Z,22.57
2018-07-31T01:31:11.363Z,22.60
2018-07-31T01:32:11.430Z,22.60
2018-07-31T01:33:11.491Z,22.62
2018-07-31T01:34:11.559Z,22.59
2018-07-31T01:35:11.631Z,22.60
2018-07-31T01:36:11.699Z,22.59
2018-07-31T01:37:11.767Z,22.60
2018-07-31T01:38:11.827Z,22.62
2018-07-31T01:39:11.899Z,22.59
2018-07-31T01:40:11.963Z,22.51
2018-07-31T01:41:12.032Z,22.51
2018-07-31T01:42:12.140Z,22.54
2018-07-31T01:43:12.173Z,22.50
2018-07-31T01:44:12.231Z,22.48
2018-07-31T01:45:12.299Z,22.51
2018-07-31T01:46:12.373Z,22.47
2018-07-31T01:47:12.440Z,22.48
2018-07-31T01:48:12.511Z,22.47
2018-07-31T01:49:12.572Z,22.51
2018-07-31T01:50:12.636Z,22.51
2018-07-31T01:51:12.715Z,22.44
2018-07-31T01:52:12.782Z,22.43
2018-07-31T01:53:12.843Z,22.45
2018-07-31T01:54:12.903Z,22.38
2018-07-31T01:55:12.971Z,22.39
2018-07-31T01:56:13.036Z,22.32
2018-07-31T01:57:13.120Z,22.41
2018-07-31T01:58:13.180Z,22.35
2018-07-31T01:59:13.247Z,22.32
2018-07-31T02:00:13.314Z,22.28
2018-07-31T02:01:13.376Z,22.28
2018-07-31T02:02:13.460Z,22.23
2018-07-31T02:03:13.518Z,22.25
2018-07-31T02:04:13.580Z,22.29
2018-07-31T02:05:13.644Z,22.29
2018-07-31T02:06:13.752Z,22.26
2018-07-31T02:07:13.789Z,22.30
2018-07-31T02:08:13.862Z,22.26
2018-07-31T02:09:13.912Z,22.26
2018-07-31T02:10:13.984Z,22.26
2018-07-31T02:11:14.048Z,22.32
2018-07-31T02:12:14.160Z,22.22
2018-07-31T02:13:14.184Z,22.18
2018-07-31T02:14:14.248Z,22.18
2018-07-31T02:15:14.320Z,22.18
2018-07-31T02:16:14.388Z,22.23
2018-07-31T02:17:14.472Z,22.29
2018-07-31T02:18:14.525Z,22.18
2018-07-31T02:19:14.599Z,22.15
2018-07-31T02:20:14.668Z,22.14
2018-07-31T02:21:14.724Z,22.14
2018-07-31T02:22:14.793Z,22.22
2018-07-31T02:23:14.862Z,22.08
2018-07-31T02:24:14.925Z,22.18
2018-07-31T02:25:14.989Z,22.14
2018-07-31T02:26:15.057Z,22.07
2018-07-31T02:27:15.280Z,22.15
2018-07-31T02:28:15.272Z,22.02
2018-07-31T02:29:15.257Z,22.02
2018-07-31T02:30:15.329Z,22.02
2018-07-31T02:31:15.393Z,22.08
2018-07-31T02:32:15.465Z,22.13
2018-07-31T02:33:15.537Z,22.15
2018-07-31T02:34:15.593Z,22.06
2018-07-31T02:35:15.661Z,22.04
2018-07-31T02:36:15.729Z,22.10
2018-07-31T02:37:15.801Z,22.07
2018-07-31T02:38:15.869Z,22.10
2018-07-31T02:39:15.929Z,22.02
2018-07-31T02:40:16.002Z,22.04
2018-07-31T02:41:16.062Z,21.96
2018-07-31T02:42:16.153Z,21.98
2018-07-31T02:43:16.202Z,22.02
2018-07-31T02:44:16.273Z,21.99
2018-07-31T02:45:16.333Z,21.92
2018-07-31T02:46:16.399Z,21.92
2018-07-31T02:47:16.474Z,21.93
2018-07-31T02:48:16.541Z,21.98
2018-07-31T02:49:16.602Z,21.91
2018-07-31T02:50:16.665Z,21.92
2018-07-31T02:51:16.738Z,21.91
2018-07-31T02:52:16.809Z,21.93
2018-07-31T02:53:16.889Z,21.83
2018-07-31T02:54:16.934Z,21.92
2018-07-31T02:55:17.005Z,21.88
2018-07-31T02:56:17.070Z,21.76
2018-07-31T02:57:17.157Z,21.80
2018-07-31T02:58:17.283Z,21.85
2018-07-31T02:59:17.270Z,21.80
2018-07-31T03:00:17.341Z,21.82
2018-07-31T03:01:17.406Z,21.79
2018-07-31T03:02:17.478Z,21.75
2018-07-31T03:03:17.554Z,21.67
2018-07-31T03:04:17.610Z,21.70
2018-07-31T03:05:17.673Z,21.61
2018-07-31T03:06:17.757Z,21.67
2018-07-31T03:07:17.814Z,21.67
2018-07-31T03:08:18.030Z,21.67
2018-07-31T03:09:17.939Z,21.64
2018-07-31T03:10:18.007Z,21.67
2018-07-31T03:11:18.074Z,21.61
2018-07-31T03:12:18.162Z,21.70
2018-07-31T03:13:18.206Z,21.64
2018-07-31T03:14:18.274Z,21.55
2018-07-31T03:15:18.344Z,21.64
2018-07-31T03:16:18.414Z,21.70
2018-07-31T03:17:18.483Z,21.69
2018-07-31T03:18:18.550Z,21.64
2018-07-31T03:19:18.613Z,21.73
2018-07-31T03:20:18.679Z,21.75
2018-07-31T03:21:18.746Z,21.76
2018-07-31T03:22:18.831Z,21.77
2018-07-31T03:23:18.883Z,21.75
2018-07-31T03:24:18.947Z,21.79
2018-07-31T03:25:19.011Z,21.73
2018-07-31T03:26:19.079Z,21.62
2018-07-31T03:27:19.151Z,21.67
2018-07-31T03:28:19.289Z,21.66
2018-07-31T03:29:19.283Z,21.66
2018-07-31T03:30:19.351Z,21.62
2018-07-31T03:31:19.415Z,21.58
2018-07-31T03:32:19.479Z,21.51
2018-07-31T03:33:19.563Z,21.45
2018-07-31T03:34:19.623Z,21.39
2018-07-31T03:35:19.685Z,21.39
2018-07-31T03:36:19.747Z,21.43
2018-07-31T03:37:19.815Z,21.37
2018-07-31T03:38:19.899Z,21.43
2018-07-31T03:39:19.955Z,21.43
2018-07-31T03:40:20.019Z,21.37
2018-07-31T03:41:20.083Z,21.40
2018-07-31T03:42:20.151Z,21.36
2018-07-31T03:43:20.388Z,21.39
2018-07-31T03:44:20.283Z,21.35
2018-07-31T03:45:20.355Z,21.33
2018-07-31T03:46:20.419Z,21.36
2018-07-31T03:47:20.491Z,21.37
2018-07-31T03:48:21.419Z,21.35
2018-07-31T03:49:20.627Z,21.27
2018-07-31T03:50:20.696Z,21.32
2018-07-31T03:51:20.776Z,21.30
2018-07-31T03:52:20.819Z,21.27
2018-07-31T03:53:20.891Z,21.32
2018-07-31T03:54:20.967Z,21.36
2018-07-31T03:55:21.019Z,21.29
2018-07-31T03:56:21.096Z,21.29
2018-07-31T03:57:21.152Z,21.36
2018-07-31T03:58:21.243Z,21.25
2018-07-31T03:59:21.287Z,21.33
2018-07-31T04:00:21.351Z,21.33
2018-07-31T04:01:21.421Z,21.25
2018-07-31T04:02:21.487Z,21.20
2018-07-31T04:03:21.560Z,21.24
2018-07-31T04:04:21.628Z,21.25
2018-07-31T04:05:21.739Z,21.22
2018-07-31T04:06:21.758Z,21.24
2018-07-31T04:07:21.819Z,21.27
2018-07-31T04:08:21.900Z,21.33
2018-07-31T04:09:21.960Z,21.36
2018-07-31T04:10:22.020Z,21.35
2018-07-31T04:11:22.088Z,21.29
2018-07-31T04:12:22.156Z,21.36
2018-07-31T04:13:22.532Z,21.27
2018-07-31T04:14:22.288Z,21.27
2018-07-31T04:15:22.360Z,21.30
2018-07-31T04:16:22.424Z,21.29
2018-07-31T04:17:22.489Z,21.25
2018-07-31T04:18:22.565Z,21.30
2018-07-31T04:19:22.633Z,21.37
2018-07-31T04:20:22.688Z,21.24
2018-07-31T04:21:22.757Z,21.33
2018-07-31T04:22:22.824Z,21.29
2018-07-31T04:23:22.896Z,21.29
2018-07-31T04:24:22.964Z,21.29
2018-07-31T04:25:23.032Z,21.29
2018-07-31T04:26:23.089Z,21.33
2018-07-31T04:27:23.161Z,21.32
2018-07-31T04:28:23.377Z,21.32
2018-07-31T04:29:23.289Z,21.36
2018-07-31T04:30:23.357Z,21.37
2018-07-31T04:31:23.424Z,21.36
2018-07-31T04:32:23.497Z,21.40
2018-07-31T04:33:23.565Z,21.43
2018-07-31T04:34:23.633Z,21.45
2018-07-31T04:35:23.693Z,21.40
2018-07-31T04:36:23.764Z,21.40
2018-07-31T04:37:23.826Z,21.51
2018-07-31T04:38:23.905Z,21.54
2018-07-31T04:39:23.981Z,21.52
2018-07-31T04:40:24.025Z,21.61
2018-07-31T04:41:24.097Z,21.62
2018-07-31T04:42:24.207Z,21.73
2018-07-31T04:43:24.541Z,21.83
2018-07-31T04:44:24.298Z,21.85
2018-07-31T04:45:24.366Z,21.93
2018-07-31T04:46:24.425Z,21.99
2018-07-31T04:47:24.497Z,22.13
2018-07-31T04:48:24.567Z,22.07
2018-07-31T04:49:24.646Z,22.13
2018-07-31T04:50:24.725Z,22.15
2018-07-31T04:51:24.765Z,22.14
2018-07-31T04:52:24.830Z,22.13
2018-07-31T04:53:24.905Z,22.04
2018-07-31T04:54:24.970Z,22.20
2018-07-31T04:55:25.034Z,22.15
2018-07-31T04:56:25.098Z,22.02
2018-07-31T04:57:25.161Z,22.02
2018-07-31T04:58:25.251Z,22.04
2018-07-31T04:59:25.298Z,22.02
2018-07-31T05:00:25.366Z,22.13
2018-07-31T05:01:25.437Z,22.15
2018-07-31T05:02:25.502Z,22.06
2018-07-31T05:03:25.570Z,22.06
2018-07-31T05:04:25.697Z,22.04
2018-07-31T05:05:25.698Z,22.04
2018-07-31T05:06:25.766Z,22.11
2018-07-31T05:07:25.834Z,22.11
2018-07-31T05:08:25.906Z,22.06
2018-07-31T05:09:25.974Z,22.13
2018-07-31T05:10:26.038Z,22.06
2018-07-31T05:11:26.100Z,22.02
2018-07-31T05:12:26.170Z,21.99
2018-07-31T05:13:26.234Z,21.98
2018-07-31T05:14:26.460Z,22.14
2018-07-31T05:15:26.366Z,22.18
2018-07-31T05:16:26.434Z,21.99
2018-07-31T05:17:26.510Z,22.02
2018-07-31T05:18:26.649Z,22.02
2018-07-31T05:19:26.642Z,22.17
2018-07-31T05:20:26.710Z,22.10
2018-07-31T05:21:26.782Z,22.00
2018-07-31T05:22:26.834Z,22.14
2018-07-31T05:23:26.914Z,22.10
2018-07-31T05:24:26.978Z,22.00
2018-07-31T05:25:27.047Z,22.20
2018-07-31T05:26:27.104Z,22.13
2018-07-31T05:27:27.174Z,22.02
2018-07-31T05:28:27.239Z,22.04
2018-07-31T05:29:27.304Z,22.04
2018-07-31T05:30:27.482Z,22.07
2018-07-31T05:31:27.439Z,22.02
2018-07-31T05:32:27.544Z,22.02
2018-07-31T05:33:27.571Z,22.04
2018-07-31T05:34:27.639Z,21.99
2018-07-31T05:35:27.711Z,22.15
2018-07-31T05:36:27.779Z,22.20
2018-07-31T05:37:27.839Z,22.17
2018-07-31T05:38:27.907Z,22.14
2018-07-31T05:39:28.016Z,22.30
2018-07-31T05:40:28.047Z,22.28
2018-07-31T05:41:28.120Z,22.36
2018-07-31T05:42:28.175Z,22.35
2018-07-31T05:43:28.243Z,22.48
2018-07-31T05:44:28.320Z,22.50
2018-07-31T05:45:28.384Z,22.62
2018-07-31T05:46:28.455Z,22.69
2018-07-31T05:47:28.512Z,22.78
2018-07-31T05:48:28.581Z,22.88
2018-07-31T05:49:28.644Z,23.00
2018-07-31T05:50:28.724Z,23.10
2018-07-31T05:51:28.784Z,23.23
2018-07-31T05:52:28.848Z,23.41
2018-07-31T05:53:28.912Z,23.54
2018-07-31T05:54:28.985Z,23.63
2018-07-31T05:55:29.060Z,23.80
2018-07-31T05:56:29.124Z,23.91
2018-07-31T05:57:29.239Z,24.11
2018-07-31T05:58:29.252Z,24.23
2018-07-31T05:59:29.324Z,24.35
2018-07-31T06:00:29.392Z,24.48
2018-07-31T06:01:29.463Z,24.55
2018-07-31T06:02:29.522Z,24.65
2018-07-31T06:03:29.664Z,24.68
2018-07-31T06:04:29.657Z,24.77
2018-07-31T06:05:29.732Z,24.88
2018-07-31T06:06:29.801Z,24.91
2018-07-31T06:07:29.860Z,24.93
2018-07-31T06:08:29.928Z,25.03
2018-07-31T06:09:30.050Z,25.01
2018-07-31T06:10:30.073Z,24.99
2018-07-31T06:11:30.141Z,24.96
2018-07-31T06:12:30.196Z,24.91
2018-07-31T06:13:30.269Z,24.91
2018-07-31T06:14:30.337Z,24.89
2018-07-31T06:15:30.416Z,24.89
2018-07-31T06:16:30.481Z,24.89
2018-07-31T06:17:30.541Z,24.92
2018-07-31T06:18:30.613Z,24.92
2018-07-31T06:19:30.677Z,24.95
2018-07-31T06:20:30.753Z,24.93
2018-07-31T06:21:30.826Z,24.86
2018-07-31T06:22:30.881Z,24.89
2018-07-31T06:23:30.949Z,24.96
2018-07-31T06:24:31.021Z,24.96
2018-07-31T06:25:31.201Z,24.99
2018-07-31T06:26:31.153Z,25.13
2018-07-31T06:27:31.225Z,25.17
2018-07-31T06:28:31.295Z,25.13
2018-07-31T06:29:31.378Z,25.17
2018-07-31T06:30:31.433Z,25.31
2018-07-31T06:31:31.505Z,25.32
2018-07-31T06:32:31.573Z,25.38
2018-07-31T06:33:31.633Z,25.35
2018-07-31T06:34:31.702Z,25.43
2018-07-31T06:35:31.777Z,25.46
2018-07-31T06:36:31.850Z,25.43
2018-07-31T06:37:31.913Z,25.41
2018-07-31T06:38:31.973Z,25.40
2018-07-31T06:39:32.057Z,25.41
2018-07-31T06:40:32.243Z,25.46
2018-07-31T06:41:32.186Z,25.50
2018-07-31T06:42:32.257Z,25.54
2018-07-31T06:43:32.366Z,25.63
2018-07-31T06:44:32.386Z,25.75
2018-07-31T06:45:32.462Z,25.91
2018-07-31T06:46:32.530Z,26.00
2018-07-31T06:47:32.594Z,25.95
2018-07-31T06:48:32.670Z,26.02
2018-07-31T06:49:32.730Z,26.00
2018-07-31T06:50:32.806Z,25.99
2018-07-31T06:51:32.874Z,26.03
2018-07-31T06:52:32.938Z,26.15
2018-07-31T06:53:33.006Z,26.40
2018-07-31T06:54:33.078Z,26.62
2018-07-31T06:55:33.299Z,26.78
2018-07-31T06:56:33.217Z,26.99
2018-07-31T06:57:33.282Z,27.21
2018-07-31T06:58:33.355Z,27.29
2018-07-31T06:59:33.423Z,27.22
2018-07-31T07:00:33.498Z,27.30
2018-07-31T07:01:33.570Z,27.35
2018-07-31T07:02:33.630Z,27.44
2018-07-31T07:03:33.703Z,27.40
2018-07-31T07:04:33.779Z,27.36
2018-07-31T07:05:33.851Z,27.20
2018-07-31T07:06:33.918Z,27.30
2018-07-31T07:07:33.983Z,27.48
2018-07-31T07:08:34.055Z,27.54
2018-07-31T07:09:34.123Z,28.14
2018-07-31T07:10:34.523Z,28.10
2018-07-31T07:11:34.263Z,27.95
2018-07-31T07:12:34.335Z,28.20
2018-07-31T07:13:34.403Z,28.30
2018-07-31T07:14:34.479Z,28.15
2018-07-31T07:15:34.588Z,28.14
2018-07-31T07:16:34.623Z,28.10
2018-07-31T07:17:34.687Z,27.93
2018-07-31T07:18:34.759Z,28.00
2018-07-31T07:19:34.831Z,28.38
2018-07-31T07:20:34.919Z,28.72
2018-07-31T07:21:34.979Z,28.85
2018-07-31T07:22:35.101Z,29.49
2018-07-31T07:23:35.115Z,29.29
2018-07-31T07:24:35.189Z,29.44
2018-07-31T07:25:35.255Z,29.34
2018-07-31T07:26:35.531Z,29.56
2018-07-31T07:27:35.404Z,29.36
2018-07-31T07:28:35.472Z,29.38
2018-07-31T07:29:35.545Z,29.41
2018-07-31T07:30:35.615Z,30.19
2018-07-31T07:31:35.695Z,31.05
2018-07-31T07:32:35.774Z,31.40
2018-07-31T07:33:35.867Z,31.02
2018-07-31T07:34:35.908Z,31.22
2018-07-31T07:35:35.980Z,31.54
2018-07-31T07:36:36.060Z,32.07
2018-07-31T07:37:36.136Z,32.48
2018-07-31T07:38:36.204Z,32.86
2018-07-31T07:39:36.279Z,32.68
2018-07-31T07:40:36.353Z,32.75
2018-07-31T07:41:36.432Z,32.75
2018-07-31T07:42:36.511Z,33.17
2018-07-31T07:43:36.580Z,33.84
2018-07-31T07:44:36.656Z,34.61
2018-07-31T07:45:36.732Z,35.49
2018-07-31T07:46:36.816Z,35.08
2018-07-31T07:47:36.891Z,34.77
2018-07-31T07:48:36.965Z,34.52
2018-07-31T07:49:37.097Z,34.32
2018-07-31T07:50:37.116Z,34.27
2018-07-31T07:51:37.517Z,34.30
2018-07-31T07:52:37.272Z,34.08
2018-07-31T07:53:37.348Z,34.32
2018-07-31T07:54:37.426Z,34.43
2018-07-31T07:55:37.504Z,34.47
2018-07-31T07:56:37.592Z,34.54
2018-07-31T07:57:37.664Z,34.45
2018-07-31T07:58:37.828Z,35.27
2018-07-31T07:59:37.820Z,35.66
2018-07-31T08:00:37.896Z,35.66
2018-07-31T08:01:37.980Z,35.14
2018-07-31T08:02:38.052Z,35.31
2018-07-31T08:03:38.150Z,35.80
2018-07-31T08:04:38.205Z,36.27
2018-07-31T08:05:38.285Z,36.86
2018-07-31T08:06:38.360Z,37.17
2018-07-31T08:07:38.748Z,37.35
2018-07-31T08:08:38.519Z,37.18
2018-07-31T08:09:38.607Z,36.72
2018-07-31T08:10:38.676Z,36.77
2018-07-31T08:11:38.757Z,36.42
2018-07-31T08:12:38.840Z,36.09
2018-07-31T08:13:38.920Z,36.31
2018-07-31T08:14:38.992Z,36.28
2018-07-31T08:15:39.073Z,36.04
2018-07-31T08:16:39.152Z,35.64
2018-07-31T08:17:39.264Z,35.58
2018-07-31T08:18:39.309Z,35.53
2018-07-31T08:19:39.392Z,35.68
2018-07-31T08:20:39.473Z,35.70
2018-07-31T08:21:39.545Z,35.42
2018-07-31T08:22:39.678Z,35.66
2018-07-31T08:23:39.710Z,35.78
2018-07-31T08:24:39.782Z,35.68
2018-07-31T08:25:39.865Z,35.64
2018-07-31T08:26:39.937Z,35.44
2018-07-31T08:27:40.068Z,35.89
2018-07-31T08:28:40.109Z,36.12
2018-07-31T08:29:40.177Z,36.24
2018-07-31T08:30:40.257Z,35.30
2018-07-31T08:31:40.338Z,34.70
2018-07-31T08:32:40.509Z,34.33
2018-07-31T08:33:40.494Z,34.14
2018-07-31T08:34:40.570Z,33.64
2018-07-31T08:35:40.645Z,33.68
2018-07-31T08:36:40.725Z,34.18
2018-07-31T08:37:40.814Z,34.93
2018-07-31T08:38:40.889Z,35.44
2018-07-31T08:39:40.966Z,35.97
2018-07-31T08:40:41.042Z,36.27
2018-07-31T08:41:41.118Z,36.68
2018-07-31T08:42:41.222Z,37.29
2018-07-31T08:43:41.274Z,37.80
2018-07-31T08:44:41.354Z,37.39
2018-07-31T08:45:41.431Z,37.26
2018-07-31T08:46:41.510Z,37.40
2018-07-31T08:47:41.598Z,37.39
2018-07-31T08:48:41.678Z,37.17
2018-07-31T08:49:41.746Z,37.58
2018-07-31T08:50:41.833Z,37.82
2018-07-31T08:51:41.918Z,37.51
2018-07-31T08:52:41.994Z,37.55
2018-07-31T08:53:42.075Z,37.59
2018-07-31T08:54:42.146Z,37.14
2018-07-31T08:55:42.279Z,37.17
2018-07-31T08:56:42.307Z,37.10
2018-07-31T08:57:42.386Z,37.25
2018-07-31T08:58:42.470Z,37.74
2018-07-31T08:59:42.542Z,37.82
2018-07-31T09:00:42.623Z,38.21
2018-07-31T09:01:42.706Z,38.05
2018-07-31T09:02:42.831Z,37.11
2018-07-31T09:03:42.874Z,37.51
2018-07-31T09:04:42.942Z,37.65
2018-07-31T09:05:43.018Z,37.89
2018-07-31T09:06:43.098Z,37.99
2018-07-31T09:07:43.186Z,38.06
2018-07-31T09:08:43.336Z,38.23
2018-07-31T09:09:43.339Z,38.11
2018-07-31T09:10:43.442Z,38.31
2018-07-31T09:11:43.499Z,38.68
2018-07-31T09:12:43.579Z,39.09
2018-07-31T09:13:43.667Z,39.26
2018-07-31T09:14:43.755Z,39.15
2018-07-31T09:15:43.819Z,38.95
2018-07-31T09:16:43.911Z,39.12
2018-07-31T09:17:43.980Z,39.02
2018-07-31T09:18:44.075Z,39.12
2018-07-31T09:19:44.147Z,39.14
2018-07-31T09:20:44.231Z,38.58
2018-07-31T09:21:44.299Z,38.27
2018-07-31T09:22:44.383Z,38.48
2018-07-31T09:23:44.467Z,38.79
2018-07-31T09:24:44.593Z,38.84
2018-07-31T09:25:44.623Z,38.87
2018-07-31T09:26:44.703Z,38.82
2018-07-31T09:27:44.783Z,39.31
2018-07-31T09:28:44.871Z,39.75
2018-07-31T09:29:44.948Z,39.83
2018-07-31T09:30:45.036Z,39.86
2018-07-31T09:31:45.103Z,38.87
2018-07-31T09:32:45.184Z,39.25
2018-07-31T09:33:45.283Z,38.45
2018-07-31T09:34:45.365Z,38.68
2018-07-31T09:35:45.423Z,37.80
2018-07-31T09:36:45.503Z,36.99
2018-07-31T09:37:45.580Z,36.43
2018-07-31T09:38:45.667Z,36.23
2018-07-31T09:39:45.748Z,35.98
2018-07-31T09:40:45.823Z,35.68
2018-07-31T09:41:45.900Z,35.95
2018-07-31T09:42:46.043Z,35.71
2018-07-31T09:43:46.064Z,35.48
2018-07-31T09:44:46.145Z,35.55
2018-07-31T09:45:46.213Z,35.27
2018-07-31T09:46:46.292Z,35.24
2018-07-31T09:47:46.368Z,35.34
2018-07-31T09:48:46.460Z,35.45
2018-07-31T09:49:46.532Z,34.75
2018-07-31T09:50:46.607Z,34.14
2018-07-31T09:51:46.680Z,34.24
2018-07-31T09:52:46.756Z,35.12
2018-07-31T09:53:46.840Z,35.33
2018-07-31T09:54:46.920Z,35.26
2018-07-31T09:55:46.993Z,34.77
2018-07-31T09:56:47.069Z,34.66
2018-07-31T09:57:47.144Z,34.32
2018-07-31T09:58:47.388Z,34.06
2018-07-31T09:59:47.296Z,33.81
2018-07-31T10:00:47.377Z,34.48
2018-07-31T10:01:47.453Z,34.75
2018-07-31T10:02:47.528Z,35.08
2018-07-31T10:03:47.609Z,35.00
2018-07-31T10:04:47.693Z,35.48
2018-07-31T10:05:47.758Z,35.86
2018-07-31T10:06:47.841Z,35.46
2018-07-31T10:07:47.913Z,34.99
2018-07-31T10:08:47.995Z,34.81
2018-07-31T10:09:48.072Z,34.25
2018-07-31T10:10:48.145Z,34.47
2018-07-31T10:11:48.275Z,34.64
2018-07-31T10:12:48.290Z,34.92
2018-07-31T10:13:48.481Z,35.11
2018-07-31T10:14:48.449Z,35.07
2018-07-31T10:15:48.521Z,34.55
2018-07-31T10:16:48.601Z,34.78
2018-07-31T10:17:48.704Z,34.77
2018-07-31T10:18:48.761Z,35.10
2018-07-31T10:19:48.833Z,35.33
2018-07-31T10:20:48.902Z,35.68
2018-07-31T10:21:48.979Z,35.79
2018-07-31T10:22:49.053Z,35.82
2018-07-31T10:23:49.278Z,35.53
2018-07-31T10:24:49.206Z,36.14
2018-07-31T10:25:49.286Z,36.23
2018-07-31T10:26:49.362Z,36.58
2018-07-31T10:27:49.434Z,36.98
2018-07-31T10:28:49.517Z,37.28
2018-07-31T10:29:49.600Z,37.48
2018-07-31T10:30:49.733Z,37.47
2018-07-31T10:31:49.738Z,37.28
2018-07-31T10:32:49.814Z,37.18
2018-07-31T10:33:49.898Z,36.81
2018-07-31T10:34:49.974Z,36.61
2018-07-31T10:35:50.043Z,36.40
2018-07-31T10:36:50.118Z,36.33
2018-07-31T10:37:50.255Z,36.37
2018-07-31T10:38:50.278Z,36.62
2018-07-31T10:39:50.352Z,36.86
2018-07-31T10:40:50.422Z,37.06
2018-07-31T10:41:50.498Z,36.77
2018-07-31T10:42:50.574Z,36.62
2018-07-31T10:43:50.671Z,36.68
2018-07-31T10:44:50.736Z,36.93
2018-07-31T10:45:50.803Z,36.95
2018-07-31T10:46:50.880Z,37.28
2018-07-31T10:47:50.955Z,37.40
2018-07-31T10:48:51.088Z,37.17
2018-07-31T10:49:51.110Z,36.72
2018-07-31T10:50:51.182Z,35.56
2018-07-31T10:51:51.288Z,35.34
2018-07-31T10:52:51.334Z,35.27
2018-07-31T10:53:51.719Z,35.23
2018-07-31T10:54:51.486Z,35.53
2018-07-31T10:55:51.569Z,35.61
2018-07-31T10:56:51.639Z,35.70
2018-07-31T10:57:51.714Z,35.67
2018-07-31T10:58:51.797Z,35.83
2018-07-31T10:59:51.876Z,35.93
2018-07-31T11:00:51.943Z,36.18
2018-07-31T11:01:52.015Z,36.17
2018-07-31T11:02:52.211Z,35.82
2018-07-31T11:03:52.242Z,35.76
2018-07-31T11:04:52.243Z,35.53
2018-07-31T11:05:52.319Z,35.18
2018-07-31T11:06:52.396Z,34.43
2018-07-31T11:07:52.472Z,34.51
2018-07-31T11:08:52.587Z,34.51
2018-07-31T11:09:52.631Z,34.70
2018-07-31T11:10:52.695Z,34.60
2018-07-31T11:11:52.771Z,34.33
2018-07-31T11:12:52.848Z,34.27
2018-07-31T11:13:52.927Z,34.29
2018-07-31T11:14:53.005Z,34.55
2018-07-31T11:15:53.073Z,34.61
2018-07-31T11:16:53.147Z,34.78
2018-07-31T11:17:53.223Z,35.00
2018-07-31T11:18:53.464Z,34.73
2018-07-31T11:19:53.372Z,34.03
2018-07-31T11:20:53.473Z,33.86
2018-07-31T11:21:53.524Z,33.50
2018-07-31T11:22:53.600Z,33.32
2018-07-31T11:23:53.682Z,33.79
2018-07-31T11:24:53.760Z,34.13
2018-07-31T11:25:53.817Z,34.29
2018-07-31T11:26:53.896Z,34.42
2018-07-31T11:27:53.972Z,34.30
2018-07-31T11:28:54.052Z,34.13
2018-07-31T11:29:54.128Z,33.89
2018-07-31T11:30:54.197Z,33.46
2018-07-31T11:31:54.272Z,33.27
2018-07-31T11:32:54.346Z,33.17
2018-07-31T11:33:54.424Z,33.42
2018-07-31T11:34:54.500Z,33.73
2018-07-31T11:35:54.575Z,33.79
2018-07-31T11:36:54.656Z,33.90
2018-07-31T11:37:54.719Z,33.95
2018-07-31T11:38:54.800Z,34.02
2018-07-31T11:39:54.873Z,34.29
2018-07-31T11:40:54.948Z,34.29
2018-07-31T11:41:55.012Z,34.30
2018-07-31T11:42:55.089Z,34.30
2018-07-31T11:43:55.171Z,33.95
2018-07-31T11:44:55.556Z,33.84
2018-07-31T11:45:55.316Z,33.67
2018-07-31T11:46:55.388Z,33.37
2018-07-31T11:47:55.456Z,33.32
2018-07-31T11:48:55.535Z,33.22
2018-07-31T11:49:55.695Z,33.12
2018-07-31T11:50:55.688Z,33.15
2018-07-31T11:51:55.757Z,33.39
2018-07-31T11:52:55.829Z,33.59
2018-07-31T11:53:55.909Z,33.68
2018-07-31T11:54:55.985Z,33.74
2018-07-31T11:55:56.082Z,33.62
2018-07-31T11:56:56.125Z,33.67
2018-07-31T11:57:56.199Z,33.80
2018-07-31T11:58:56.272Z,33.92
2018-07-31T11:59:56.345Z,34.18
2018-07-31T12:00:56.446Z,34.32
2018-07-31T12:01:56.493Z,34.32
2018-07-31T12:02:56.576Z,34.64
2018-07-31T12:03:56.641Z,34.73
2018-07-31T12:04:56.717Z,35.17
2018-07-31T12:05:56.793Z,35.46
2018-07-31T12:06:56.873Z,35.71
2018-07-31T12:07:56.937Z,35.83
2018-07-31T12:08:57.009Z,35.86
2018-07-31T12:09:57.133Z,35.74
2018-07-31T12:10:57.309Z,35.45
2018-07-31T12:11:57.240Z,35.08
2018-07-31T12:12:57.305Z,34.39
2018-07-31T12:13:57.398Z,34.25
2018-07-31T12:14:57.455Z,34.10
2018-07-31T12:15:57.591Z,33.99
2018-07-31T12:16:57.611Z,33.94
2018-07-31T12:17:57.674Z,33.74
2018-07-31T12:18:57.801Z,33.57
2018-07-31T12:19:57.826Z,33.68
2018-07-31T12:20:57.999Z,33.86
2018-07-31T12:21:57.985Z,33.96
2018-07-31T12:22:58.050Z,34.32
2018-07-31T12:23:58.122Z,34.61
2018-07-31T12:24:58.199Z,34.66
2018-07-31T12:25:58.590Z,34.64
2018-07-31T12:26:58.380Z,34.51
2018-07-31T12:27:58.423Z,34.23
2018-07-31T12:28:58.502Z,34.06
2018-07-31T12:29:58.566Z,34.38
2018-07-31T12:30:58.662Z,34.62
2018-07-31T12:31:58.723Z,35.07
2018-07-31T12:32:58.803Z,35.02
2018-07-31T12:33:58.862Z,35.29
2018-07-31T12:34:58.942Z,35.42
2018-07-31T12:35:59.018Z,35.19
2018-07-31T12:36:59.122Z,34.90
2018-07-31T12:37:59.158Z,34.62
2018-07-31T12:38:59.234Z,34.62
2018-07-31T12:39:59.310Z,34.70
2018-07-31T12:40:59.390Z,34.55
2018-07-31T12:41:59.491Z,34.51
2018-07-31T12:42:59.531Z,34.39
2018-07-31T12:43:59.628Z,34.50
2018-07-31T12:44:59.682Z,34.38
2018-07-31T12:45:59.765Z,34.11
2018-07-31T12:46:59.834Z,34.03
2018-07-31T12:47:59.903Z,34.02
2018-07-31T12:48:59.979Z,33.84
2018-07-31T12:50:00.100Z,33.53
2018-07-31T12:51:00.175Z,33.42
2018-07-31T12:52:00.203Z,33.59
2018-07-31T12:53:00.275Z,33.96